createdAt,value
2019-05-06T00:00:34.089Z,100449.90
2019-05-06T00:05:40.716Z,100446.89
2019-05-06T00:10:46.691Z,100447.94
2019-05-06T00:15:54.375Z,100452.16
2019-05-06T00:21:00.678Z,100443.47
2019-05-06T00:26:24.347Z,100437.83
2019-05-06T00:31:31.355Z,100440.14
2019-05-06T00:36:37.324Z,100448.36
2019-05-06T00:41:44.830Z,100445.28
2019-05-06T00:46:49.859Z,100447.19
2019-05-06T00:51:55.696Z,100445.62
2019-05-06T00:57:03.513Z,100447.20
2019-05-06T01:02:09.637Z,100441.98
2019-05-06T01:07:15.513Z,100443.86
2019-05-06T01:12:23.840Z,100443.86
2019-05-06T01:17:29.496Z,100441.99
2019-05-06T01:22:35.369Z,100436.56
2019-05-06T01:27:41.341Z,100442.20
2019-05-06T01:32:47.102Z,100443.11
2019-05-06T01:37:54.710Z,100442.16
2019-05-06T01:43:11.333Z,100449.79
2019-05-06T01:48:18.838Z,100446.20
2019-05-06T01:53:25.151Z,100446.05
2019-05-06T01:58:31.191Z,100447.59
2019-05-06T02:03:37.371Z,100444.00
2019-05-06T02:08:44.731Z,100445.41
2019-05-06T02:13:51.047Z,100440.44
2019-05-06T02:18:56.877Z,100441.38
2019-05-06T02:24:13.558Z,100438.75
2019-05-06T02:29:37.541Z,100438.36
2019-05-06T02:35:00.400Z,100432.70
2019-05-06T02:40:33.003Z,100424.75
2019-05-06T02:45:37.850Z,100429.16
2019-05-06T02:50:43.641Z,100426.23
2019-05-06T02:55:53.132Z,100426.52
2019-05-06T03:00:58.720Z,100426.69
2019-05-06T03:06:04.742Z,100424.45
2019-05-06T03:11:13.538Z,100432.22
2019-05-06T03:16:19.644Z,100430.80
2019-05-06T03:21:37.096Z,100430.70
2019-05-06T03:26:43.853Z,100439.09
2019-05-06T03:31:55.654Z,100438.80
2019-05-06T03:36:57.724Z,100442.65
2019-05-06T03:42:04.699Z,100444.48
2019-05-06T03:47:18.579Z,100439.86
2019-05-06T03:52:26.086Z,100445.89
2019-05-06T03:57:35.482Z,100451.62
2019-05-06T04:02:39.927Z,100448.31
2019-05-06T04:07:48.196Z,100450.65
2019-05-06T04:12:54.882Z,100455.80
2019-05-06T04:18:03.924Z,100454.31
2019-05-06T04:23:23.390Z,100455.22
2019-05-06T04:28:36.251Z,100453.17
2019-05-06T04:33:50.079Z,100459.97
2019-05-06T04:38:53.667Z,100462.03
2019-05-06T04:43:59.268Z,100458.98
2019-05-06T04:49:05.648Z,100467.17
2019-05-06T04:54:13.361Z,100466.86
2019-05-06T04:59:23.097Z,100467.28
2019-05-06T05:04:32.817Z,100458.98
2019-05-06T05:09:36.622Z,100462.99
2019-05-06T05:14:43.094Z,100466.57
2019-05-06T05:19:49.357Z,100469.80
2019-05-06T05:24:56.320Z,100469.08
2019-05-06T05:30:02.371Z,100471.17
2019-05-06T05:35:08.978Z,100477.19
2019-05-06T05:40:15.336Z,100479.24
2019-05-06T05:45:22.176Z,100484.52
2019-05-06T05:50:32.512Z,100478.56
2019-05-06T05:55:38.443Z,100482.70
2019-05-06T06:00:46.017Z,100479.79
2019-05-06T06:05:52.257Z,100487.27
2019-05-06T06:11:00.668Z,100487.67
2019-05-06T06:16:06.621Z,100488.94
2019-05-06T06:21:28.252Z,100488.28
2019-05-06T06:26:34.595Z,100489.69
2019-05-06T06:31:45.043Z,100487.33
2019-05-06T06:36:52.734Z,100483.12
2019-05-06T06:41:59.117Z,100485.02
2019-05-06T06:47:05.919Z,100480.33
2019-05-06T06:52:14.778Z,100475.35
2019-05-06T06:57:21.785Z,100472.25
2019-05-06T07:02:35.208Z,100469.88
2019-05-06T07:07:47.196Z,100471.38
2019-05-06T07:12:49.790Z,100463.40
2019-05-06T07:17:55.866Z,100460.95
2019-05-06T07:23:03.624Z,100461.02
2019-05-06T07:28:09.864Z,100455.20
2019-05-06T07:33:15.849Z,100453.22
2019-05-06T07:38:23.051Z,100445.49
2019-05-06T07:43:46.193Z,100445.52
2019-05-06T07:48:52.867Z,100438.80
2019-05-06T07:53:59.263Z,100439.77
2019-05-06T07:59:09.119Z,100439.42
2019-05-06T08:04:16.909Z,100434.81
2019-05-06T08:09:23.116Z,100435.86
2019-05-06T08:14:32.947Z,100440.22
2019-05-06T08:19:39.251Z,100440.03
2019-05-06T08:24:45.431Z,100433.35
2019-05-06T08:29:52.684Z,100434.34
2019-05-06T08:34:58.824Z,100429.38
2019-05-06T08:40:06.816Z,100434.88
2019-05-06T08:45:13.652Z,100437.03
2019-05-06T08:50:21.871Z,100439.33
2019-05-06T08:55:29.655Z,100442.57
2019-05-06T09:00:37.556Z,100440.58
2019-05-06T09:05:46.705Z,100436.40
2019-05-06T09:10:53.241Z,100437.98
2019-05-06T09:16:02.506Z,100432.02
2019-05-06T09:21:07.619Z,100425.39
2019-05-06T09:26:15.203Z,100422.56
2019-05-06T09:31:23.106Z,100414.29
2019-05-06T09:36:43.590Z,100419.33
2019-05-06T09:41:36.300Z,100418.56
2019-05-06T09:46:42.810Z,100407.56
2019-05-06T09:51:49.052Z,100410.95
2019-05-06T09:56:56.766Z,100403.14
2019-05-06T10:02:04.186Z,100400.19
2019-05-06T10:07:11.952Z,100396.69
2019-05-06T10:12:18.591Z,100392.38
2019-05-06T10:17:25.325Z,100387.67
2019-05-06T10:22:32.458Z,100385.02
2019-05-06T10:27:42.219Z,100376.16
2019-05-06T10:32:50.158Z,100380.03
2019-05-06T10:38:03.784Z,100372.20
2019-05-06T10:43:36.604Z,100371.33
2019-05-06T10:48:42.971Z,100370.76
2019-05-06T10:53:49.141Z,100368.63
2019-05-06T10:58:55.731Z,100362.42
2019-05-06T11:04:02.882Z,100359.76
2019-05-06T11:09:10.739Z,100360.30
2019-05-06T11:14:16.709Z,100354.91
2019-05-06T11:19:22.987Z,100355.93
2019-05-06T11:24:29.388Z,100352.78
2019-05-06T11:29:39.658Z,100343.87
2019-05-06T11:34:47.352Z,100340.66
2019-05-06T11:39:53.529Z,100347.12
2019-05-06T11:44:59.451Z,100346.86
2019-05-06T11:50:09.764Z,100346.06
2019-05-06T11:55:27.847Z,100339.59
2019-05-06T12:00:25.816Z,100339.45
2019-05-06T12:05:33.019Z,100326.38
2019-05-06T12:10:39.233Z,100329.86
2019-05-06T12:15:45.323Z,100323.47
2019-05-06T12:20:52.784Z,100321.85
2019-05-06T12:25:59.090Z,100316.67
2019-05-06T12:31:05.231Z,100318.16
2019-05-06T12:36:23.032Z,100309.70
2019-05-06T12:41:29.003Z,100309.64
2019-05-06T12:46:39.839Z,100302.25
2019-05-06T12:51:46.103Z,100293.48
2019-05-06T12:56:54.292Z,100294.20
2019-05-06T13:02:02.779Z,100289.38
2019-05-06T13:07:10.057Z,100288.98
2019-05-06T13:12:17.668Z,100278.83
2019-05-06T13:17:25.472Z,100278.14
2019-05-06T13:22:33.975Z,100275.02
2019-05-06T13:27:42.798Z,100280.45
2019-05-06T13:32:52.356Z,100266.11
2019-05-06T13:37:57.859Z,100266.02
2019-05-06T13:43:12.917Z,100259.25
2019-05-06T13:48:22.921Z,100259.87
2019-05-06T13:53:39.056Z,100267.22
2019-05-06T13:58:37.276Z,100254.98
2019-05-06T14:03:43.382Z,100256.97
2019-05-06T14:08:52.836Z,100256.28
2019-05-06T14:13:58.401Z,100248.83
2019-05-06T14:19:04.571Z,100248.39
2019-05-06T14:24:13.244Z,100251.34
2019-05-06T14:29:33.005Z,100242.39
2019-05-06T14:34:39.382Z,100256.58
2019-05-06T14:39:53.893Z,100253.81
2019-05-06T14:44:54.805Z,100241.70
2019-05-06T14:50:03.729Z,100234.57
2019-05-06T14:55:12.574Z,100236.81
2019-05-06T15:00:25.609Z,100235.22
2019-05-06T15:05:33.261Z,100229.73
2019-05-06T15:10:39.808Z,100232.05
2019-05-06T15:15:45.886Z,100243.50
2019-05-06T15:20:53.114Z,100246.39
2019-05-06T15:25:59.567Z,100244.81
2019-05-06T15:31:07.823Z,100246.59
2019-05-06T15:36:32.595Z,100239.41
2019-05-06T15:41:38.295Z,100246.24
2019-05-06T15:46:44.522Z,100239.42
2019-05-06T15:51:52.345Z,100238.08
2019-05-06T15:56:57.709Z,100233.69
2019-05-06T16:02:03.837Z,100234.07
2019-05-06T16:07:12.670Z,100233.67
2019-05-06T16:12:18.198Z,100230.84
2019-05-06T16:17:24.439Z,100233.23
2019-05-06T16:22:31.126Z,100238.62
2019-05-06T16:27:37.564Z,100231.25
2019-05-06T16:32:44.393Z,100240.58
2019-05-06T16:37:50.517Z,100239.20
2019-05-06T16:42:56.829Z,100239.37
2019-05-06T16:48:03.606Z,100234.09
2019-05-06T16:53:12.106Z,100232.81
2019-05-06T16:58:19.545Z,100239.75
2019-05-06T17:03:26.901Z,100245.36
2019-05-06T17:08:36.318Z,100249.97
2019-05-06T17:13:42.584Z,100254.21
2019-05-06T17:18:49.530Z,100261.13
2019-05-06T17:23:55.564Z,100251.94
2019-05-06T17:29:09.898Z,100258.99
2019-05-06T17:34:26.509Z,100258.04
2019-05-06T17:39:32.868Z,100262.44
2019-05-06T17:44:39.458Z,100264.30
2019-05-06T17:49:45.434Z,100267.48
2019-05-06T17:54:52.780Z,100272.16
2019-05-06T17:59:59.414Z,100274.52
2019-05-06T18:05:06.824Z,100278.72
2019-05-06T18:10:14.437Z,100285.60
2019-05-06T18:15:22.546Z,100288.30
2019-05-06T18:20:29.138Z,100293.30
2019-05-06T18:25:35.315Z,100293.31
2019-05-06T18:30:41.485Z,100307.63
2019-05-06T18:35:47.877Z,100314.92
2019-05-06T18:40:53.842Z,100311.70
2019-05-06T18:46:02.626Z,100322.38
2019-05-06T18:51:07.732Z,100333.09
2019-05-06T18:56:13.929Z,100330.97
2019-05-06T19:01:19.978Z,100338.11
2019-05-06T19:06:26.047Z,100342.94
2019-05-06T19:11:32.582Z,100351.38
2019-05-06T19:16:51.459Z,100347.32
2019-05-06T19:21:45.718Z,100347.32
2019-05-06T19:26:52.931Z,100343.53
2019-05-06T19:31:58.984Z,100351.56
2019-05-06T19:37:05.170Z,100362.86
2019-05-06T19:42:12.891Z,100370.52
2019-05-06T19:47:19.359Z,100371.56
2019-05-06T19:52:26.446Z,100373.67
2019-05-06T19:57:32.506Z,100377.53
2019-05-06T20:02:38.822Z,100383.36
2019-05-06T20:07:46.510Z,100381.96
2019-05-06T20:13:04.917Z,100388.50
2019-05-06T20:18:03.030Z,100389.41
2019-05-06T20:23:09.474Z,100387.06
2019-05-06T20:28:15.637Z,100389.75
2019-05-06T20:33:22.068Z,100392.72
2019-05-06T20:38:28.171Z,100391.84
2019-05-06T20:43:33.940Z,100388.14
2019-05-06T20:48:42.051Z,100384.42
2019-05-06T20:53:47.825Z,100379.75
2019-05-06T20:58:55.127Z,100386.59
2019-05-06T21:04:02.188Z,100376.39
2019-05-06T21:09:12.205Z,100375.72
2019-05-06T21:14:17.853Z,100374.58
2019-05-06T21:19:23.922Z,100379.67
2019-05-06T21:24:31.672Z,100387.17
2019-05-06T21:29:37.306Z,100383.77
2019-05-06T21:34:43.330Z,100386.29
2019-05-06T21:39:50.267Z,100387.02
2019-05-06T21:44:56.210Z,100384.78
2019-05-06T21:50:02.104Z,100379.36
2019-05-06T21:55:10.019Z,100380.55
2019-05-06T22:00:18.353Z,100378.28
2019-05-06T22:05:26.055Z,100380.60
2019-05-06T22:10:32.482Z,100378.20
2019-05-06T22:15:38.924Z,100376.76
2019-05-06T22:21:02.991Z,100380.35
2019-05-06T22:26:13.937Z,100367.02
2019-05-06T22:31:16.543Z,100363.88
2019-05-06T22:36:22.824Z,100367.27
2019-05-06T22:41:28.757Z,100359.45
2019-05-06T22:46:34.714Z,100355.34
2019-05-06T22:51:42.487Z,100355.84
2019-05-06T22:56:47.993Z,100355.22
2019-05-06T23:02:08.401Z,100357.52
2019-05-06T23:07:14.426Z,100349.09
2019-05-06T23:12:23.001Z,100344.72
2019-05-06T23:17:27.205Z,100347.34
2019-05-06T23:22:33.207Z,100343.83
2019-05-06T23:27:39.074Z,100335.77
2019-05-06T23:32:45.045Z,100341.19
2019-05-06T23:38:45.186Z,100352.58
2019-05-06T23:44:46.262Z,100345.41
2019-05-06T23:50:47.005Z,100339.34
2019-05-06T23:56:43.287Z,100346.80
